Thursday, June 30, 2016, 1:36 PM EDT

KOKV, Winchester Regional

Location: Winchester, VA, United States Lat: 39.15
Local Time: 1:36 PM EDT (17:36 GMT) Lon: -78.15
Time Zone: US/Eastern Elev: 728 ft

Show me the last for .
Show Decoded

2016-06-30 13:15 METAR KOKV 301715Z AUTO 20003KT 10SM BKN050 25/13 A3007 RMK AO2 =
2016-06-30 12:55 METAR KOKV 301655Z AUTO 13003KT 10SM BKN046 BKN055 24/13 A3008 RMK AO2 =
2016-06-30 12:35 METAR KOKV 301635Z AUTO 08003KT 10SM BKN046 25/13 A3008 RMK AO2 =
2016-06-30 12:15 METAR KOKV 301615Z AUTO 15004KT 10SM BKN044 24/13 A3008 RMK AO2 =
2016-06-30 11:55 METAR KOKV 301555Z AUTO 20005KT 10SM SCT044 SCT050 25/14 A3008 RMK AO2 =
2016-06-30 11:35 METAR KOKV 301535Z AUTO 00000KT 10SM CLR 24/13 A3008 RMK AO2 =
2016-06-30 11:15 METAR KOKV 301515Z AUTO 00000KT 10SM CLR 23/13 A3008 RMK AO2 =
2016-06-30 10:55 METAR KOKV 301455Z AUTO 34005KT 10SM CLR 23/14 A3008 RMK AO2 =
2016-06-30 10:35 METAR KOKV 301435Z AUTO 02004KT 10SM CLR 22/13 A3008 RMK AO2 =
2016-06-30 10:15 METAR KOKV 301415Z AUTO 31004KT 10SM CLR 22/13 A3008 RMK AO2 =
2016-06-30 09:55 METAR KOKV 301355Z AUTO 34004KT 10SM CLR 22/13 A3009 RMK AO2 =
2016-06-30 09:35 METAR KOKV 301335Z AUTO 04003KT 10SM CLR 22/13 A3009 RMK AO2 =
2016-06-30 09:15 METAR KOKV 301315Z AUTO 00000KT 10SM CLR 21/14 A3009 RMK AO2 =
2016-06-30 08:55 METAR KOKV 301255Z AUTO 00000KT 10SM CLR 20/14 A3008 RMK AO2 =
2016-06-30 08:35 METAR KOKV 301235Z AUTO 00000KT 10SM CLR 18/13 A3008 RMK AO2 =
2016-06-30 08:15 METAR KOKV 301215Z AUTO 20003KT 10SM CLR 18/13 A3008 RMK AO2 =
2016-06-30 07:55 METAR KOKV 301155Z AUTO 00000KT 10SM CLR 18/13 A3007 RMK AO2 =
2016-06-30 07:35 METAR KOKV 301135Z AUTO 00000KT 10SM CLR 17/13 A3007 RMK AO2 =
2016-06-30 07:15 METAR KOKV 301115Z AUTO 00000KT 10SM CLR 16/13 A3007 RMK AO2 =
2016-06-30 06:55 METAR KOKV 301055Z AUTO 00000KT 10SM CLR 14/12 A3008 RMK AO2 =
2016-06-30 06:35 METAR KOKV 301035Z AUTO 17003KT 10SM CLR 13/12 A3008 RMK AO2 =
2016-06-30 06:15 METAR KOKV 301015Z AUTO 00000KT 10SM CLR 13/12 A3008 RMK AO2 =
2016-06-30 05:55 METAR KOKV 300955Z AUTO 00000KT 10SM CLR 12/11 A3008 RMK AO2 =
2016-06-30 05:35 METAR KOKV 300935Z AUTO 00000KT 10SM CLR 13/11 A3007 RMK AO2 =
2016-06-30 05:15 METAR KOKV 300915Z AUTO 00000KT 10SM CLR 13/12 A3006 RMK AO2 =
2016-06-30 04:55 METAR KOKV 300855Z AUTO 00000KT 10SM CLR 13/12 A3006 RMK AO2 =
2016-06-30 04:35 METAR KOKV 300835Z AUTO 00000KT 10SM CLR 14/12 A3006 RMK AO2 =
2016-06-30 04:15 METAR KOKV 300815Z AUTO 00000KT 10SM CLR 13/12 A3006 RMK AO2 =
2016-06-30 03:55 METAR KOKV 300755Z AUTO 00000KT 10SM CLR 15/12 A3007 RMK AO2 =
2016-06-30 03:35 METAR KOKV 300735Z AUTO 00000KT 10SM CLR 15/12 A3007 RMK AO2 =
2016-06-30 03:15 METAR KOKV 300715Z AUTO 00000KT 10SM CLR 15/12 A3007 RMK AO2 =
2016-06-30 02:55 METAR KOKV 300655Z AUTO 00000KT 10SM CLR 14/12 A3007 RMK AO2 =
2016-06-30 02:35 METAR KOKV 300635Z AUTO 00000KT 10SM CLR 15/12 A3006 RMK AO2 =
2016-06-30 02:15 METAR KOKV 300615Z AUTO 00000KT 10SM CLR 15/13 A3007 RMK AO2 =
2016-06-30 01:55 METAR KOKV 300555Z AUTO 00000KT 10SM CLR 16/13 A3006 RMK AO2 =
2016-06-30 01:35 METAR KOKV 300535Z AUTO 00000KT 10SM CLR 16/13 A3007 RMK AO2 =
2016-06-30 01:15 METAR KOKV 300515Z AUTO 26003KT 10SM CLR 16/13 A3007 RMK AO2 =
2016-06-30 00:55 METAR KOKV 300455Z AUTO 00000KT 10SM CLR 16/13 A3006 RMK AO2 =
2016-06-30 00:35 METAR KOKV 300435Z AUTO 00000KT 10SM CLR 17/13 A3006 RMK AO2 =
2016-06-30 00:15 METAR KOKV 300415Z AUTO 00000KT 10SM CLR 16/13 A3006 RMK AO2 =
2016-06-29 23:55 METAR KOKV 300355Z AUTO 00000KT 10SM CLR 16/13 A3005 RMK AO2 =
2016-06-29 23:35 METAR KOKV 300335Z AUTO 00000KT 10SM CLR 16/13 A3005 RMK AO2 =
2016-06-29 23:15 METAR KOKV 300315Z AUTO 00000KT 10SM CLR 16/14 A3005 RMK AO2 =
2016-06-29 22:55 METAR KOKV 300255Z AUTO 00000KT 10SM CLR 17/13 A3005 RMK AO2 =
2016-06-29 22:35 METAR KOKV 300235Z AUTO 31003KT 10SM CLR 17/13 A3004 RMK AO2 =
2016-06-29 22:15 METAR KOKV 300215Z AUTO 00000KT 10SM CLR 18/14 A3004 RMK AO2 =
2016-06-29 21:55 METAR KOKV 300155Z AUTO 33003KT 10SM CLR 18/14 A3004 RMK AO2 =
2016-06-29 21:35 METAR KOKV 300135Z AUTO 00000KT 10SM CLR 20/13 A3003 RMK AO2 =
2016-06-29 21:15 METAR KOKV 300115Z AUTO 36003KT 10SM CLR 21/13 A3003 RMK AO2 =
2016-06-29 20:55 METAR KOKV 300055Z AUTO 01003KT 10SM CLR 21/13 A3002 RMK AO2 =
2016-06-29 20:35 METAR KOKV 300035Z AUTO 00000KT 10SM CLR 22/12 A3002 RMK AO2 =
2016-06-29 20:15 METAR KOKV 300015Z AUTO 35003KT 10SM CLR 22/12 A3001 RMK AO2 =
2016-06-29 19:55 METAR KOKV 292355Z AUTO 34004KT 10SM CLR 23/12 A3000 RMK AO2 =
2016-06-29 19:35 METAR KOKV 292335Z AUTO 33005KT 10SM CLR 24/12 A2999 RMK AO2 =
2016-06-29 19:15 METAR KOKV 292315Z AUTO 33008KT 10SM CLR 25/12 A2999 RMK AO2 =
2016-06-29 18:55 METAR KOKV 292255Z AUTO 32008KT 10SM CLR 25/12 A2999 RMK AO2 =
2016-06-29 18:35 METAR KOKV 292235Z AUTO 34006KT 10SM SCT060 25/12 A2999 RMK AO2 =
2016-06-29 18:15 METAR KOKV 292215Z AUTO 33005G14KT 10SM CLR 25/12 A2999 RMK AO2 =
2016-06-29 17:55 METAR KOKV 292155Z AUTO 35008KT 10SM CLR 25/12 A2999 RMK AO2 =
2016-06-29 17:35 METAR KOKV 292135Z AUTO 36010G15KT 330V040 10SM SCT055 26/12 A2999 RMK AO2 =
2016-06-29 17:15 METAR KOKV 292115Z AUTO 35008KT 330V030 10SM SCT055 26/12 A2999 RMK AO2 =
2016-06-29 16:55 METAR KOKV 292055Z AUTO 34007KT 10SM SCT055 26/12 A2999 RMK AO2 =
2016-06-29 16:35 METAR KOKV 292035Z AUTO 34007KT 10SM SCT055 26/12 A2999 RMK AO2 =
2016-06-29 16:15 METAR KOKV 292015Z AUTO 30012G16KT 10SM SCT050 26/12 A2999 RMK AO2 =
2016-06-29 15:55 METAR KOKV 291955Z AUTO 31014KT 10SM SCT050 26/13 A2999 RMK AO2 =
2016-06-29 15:35 METAR KOKV 291935Z AUTO 34008KT 10SM SCT050 SCT060 25/12 A2999 RMK AO2 =
2016-06-29 15:15 METAR KOKV 291915Z AUTO 36006KT 10SM SCT050 BKN060 26/13 A2999 RMK AO2 =
2016-06-29 14:55 METAR KOKV 291855Z AUTO 32010KT 10SM SCT050 26/13 A2999 RMK AO2 =
2016-06-29 14:35 METAR KOKV 291835Z AUTO 32009G16KT 10SM BKN050 26/13 A2999 RMK AO2 =
2016-06-29 14:15 METAR KOKV 291815Z AUTO 33007KT 10SM SCT050 BKN055 25/13 A2999 RMK AO2 =
2016-06-29 13:55 METAR KOKV 291755Z AUTO 28010G14KT 10SM SCT048 BKN055 25/13 A2999 RMK AO2 =

Support USWX by starting your Amazon purchase here.